createdAt,value
2023-02-13T00:00:20.728Z,6.8
2023-02-13T00:01:20.785Z,6.79
2023-02-13T00:02:20.831Z,6.79
2023-02-13T00:03:20.920Z,6.79
2023-02-13T00:04:20.856Z,6.78
2023-02-13T00:05:20.902Z,6.77
2023-02-13T00:06:20.935Z,6.77
2023-02-13T00:07:20.968Z,6.8
2023-02-13T00:08:21.017Z,6.77
2023-02-13T00:09:21.035Z,6.76
2023-02-13T00:10:21.071Z,6.76
2023-02-13T00:11:21.111Z,6.77
2023-02-13T00:12:21.148Z,6.76
2023-02-13T00:13:21.191Z,6.75
2023-02-13T00:14:21.224Z,6.74
2023-02-13T00:15:21.258Z,6.71
2023-02-13T00:16:21.293Z,6.71
2023-02-13T00:17:21.313Z,6.7
2023-02-13T00:18:21.357Z,6.7
2023-02-13T00:19:21.400Z,6.69
2023-02-13T00:20:21.449Z,6.65
2023-02-13T00:21:21.462Z,6.63
2023-02-13T00:22:21.498Z,6.61
2023-02-13T00:23:21.532Z,6.6
2023-02-13T00:24:21.570Z,6.6
2023-02-13T00:25:21.639Z,6.6
2023-02-13T00:26:21.641Z,6.6
2023-02-13T00:27:21.712Z,6.6
2023-02-13T00:28:21.780Z,6.6
2023-02-13T00:29:21.747Z,6.6
2023-02-13T00:30:21.798Z,6.59
2023-02-13T00:31:22.054Z,6.58
2023-02-13T00:32:21.865Z,6.58
2023-02-13T00:33:21.896Z,6.58
2023-02-13T00:34:21.932Z,6.58
2023-02-13T00:35:21.966Z,6.58
2023-02-13T00:36:22.014Z,6.57
2023-02-13T00:37:22.045Z,6.56
2023-02-13T00:38:22.079Z,6.56
2023-02-13T00:39:22.103Z,6.54
2023-02-13T00:40:22.138Z,6.54
2023-02-13T00:41:22.175Z,6.54
2023-02-13T00:42:22.215Z,6.57
2023-02-13T00:43:22.246Z,6.57
2023-02-13T00:44:22.279Z,6.57
2023-02-13T00:45:22.315Z,6.57
2023-02-13T00:46:22.418Z,6.57
2023-02-13T00:47:22.388Z,6.56
2023-02-13T00:48:22.421Z,6.54
2023-02-13T00:49:22.463Z,6.54
2023-02-13T00:50:22.500Z,6.54
2023-02-13T00:51:22.529Z,6.54
2023-02-13T00:52:22.573Z,6.52
2023-02-13T00:53:22.597Z,6.52
2023-02-13T00:54:22.632Z,6.5
2023-02-13T00:55:22.676Z,6.49
2023-02-13T00:56:22.698Z,6.51
2023-02-13T00:57:22.738Z,6.5
2023-02-13T00:58:22.855Z,6.47
2023-02-13T00:59:22.810Z,6.5
2023-02-13T01:00:22.841Z,6.49
2023-02-13T01:01:22.956Z,6.49
2023-02-13T01:02:22.911Z,6.49
2023-02-13T01:03:22.967Z,6.49
2023-02-13T01:04:22.978Z,6.44
2023-02-13T01:05:23.013Z,6.44
2023-02-13T01:06:23.041Z,6.46
2023-02-13T01:07:23.084Z,6.45
2023-02-13T01:08:23.124Z,6.44
2023-02-13T01:09:23.141Z,6.41
2023-02-13T01:10:23.184Z,6.41
2023-02-13T01:11:23.198Z,6.42
2023-02-13T01:12:23.236Z,6.43
2023-02-13T01:13:23.272Z,6.44
2023-02-13T01:14:23.320Z,6.44
2023-02-13T01:15:23.356Z,6.44
2023-02-13T01:16:23.452Z,6.44
2023-02-13T01:17:23.427Z,6.44
2023-02-13T01:18:23.468Z,6.44
2023-02-13T01:19:23.495Z,6.44
2023-02-13T01:20:23.546Z,6.44
2023-02-13T01:21:23.579Z,6.44
2023-02-13T01:22:23.612Z,6.44
2023-02-13T01:23:23.657Z,6.44
2023-02-13T01:24:23.678Z,6.44
2023-02-13T01:25:23.711Z,6.46
2023-02-13T01:26:23.740Z,6.43
2023-02-13T01:27:23.778Z,6.43
2023-02-13T01:28:23.863Z,6.43
2023-02-13T01:29:23.834Z,6.43
2023-02-13T01:30:23.870Z,6.43
2023-02-13T01:31:24.068Z,6.43
2023-02-13T01:32:23.946Z,6.44
2023-02-13T01:33:23.974Z,6.44
2023-02-13T01:34:24.012Z,6.45
2023-02-13T01:35:24.049Z,6.41
2023-02-13T01:36:24.089Z,6.42
2023-02-13T01:37:24.106Z,6.42
2023-02-13T01:38:24.152Z,6.42
2023-02-13T01:39:24.175Z,6.42
2023-02-13T01:40:24.225Z,6.42
2023-02-13T01:41:24.254Z,6.42
2023-02-13T01:42:24.296Z,6.42
2023-02-13T01:43:24.335Z,6.42
2023-02-13T01:44:24.381Z,6.42
2023-02-13T01:45:24.435Z,6.42
2023-02-13T01:46:24.534Z,6.4
2023-02-13T01:47:24.486Z,6.41
2023-02-13T01:48:24.508Z,6.41
2023-02-13T01:49:24.557Z,6.41
2023-02-13T01:50:24.592Z,6.42
2023-02-13T01:51:24.626Z,6.42
2023-02-13T01:52:24.662Z,6.43
2023-02-13T01:53:24.691Z,6.43
2023-02-13T01:54:24.720Z,6.43
2023-02-13T01:55:24.770Z,6.43
2023-02-13T01:56:24.790Z,6.43
2023-02-13T01:57:24.838Z,6.44
2023-02-13T01:58:24.853Z,6.44
2023-02-13T01:59:24.899Z,6.45
2023-02-13T02:00:24.925Z,6.45
2023-02-13T02:01:24.994Z,6.45
2023-02-13T02:02:25.129Z,6.45
2023-02-13T02:03:25.045Z,6.46
2023-02-13T02:04:25.065Z,6.44
2023-02-13T02:05:25.109Z,6.43
2023-02-13T02:06:25.146Z,6.44
2023-02-13T02:07:25.185Z,6.44
2023-02-13T02:08:25.214Z,6.44
2023-02-13T02:09:25.260Z,6.44
2023-02-13T02:10:25.285Z,6.43
2023-02-13T02:11:25.336Z,6.45
2023-02-13T02:12:25.357Z,6.45
2023-02-13T02:13:25.389Z,6.45
2023-02-13T02:14:25.435Z,6.45
2023-02-13T02:15:25.474Z,6.44
2023-02-13T02:16:25.591Z,6.44
2023-02-13T02:17:25.544Z,6.4
2023-02-13T02:18:25.581Z,6.4
2023-02-13T02:19:25.634Z,6.39
2023-02-13T02:20:25.666Z,6.39
2023-02-13T02:21:25.696Z,6.4
2023-02-13T02:22:25.736Z,6.42
2023-02-13T02:23:25.770Z,6.42
2023-02-13T02:24:25.834Z,6.4
2023-02-13T02:25:25.846Z,6.41
2023-02-13T02:26:25.876Z,6.41
2023-02-13T02:27:25.930Z,6.4
2023-02-13T02:28:26.072Z,6.4
2023-02-13T02:29:26.016Z,6.4
2023-02-13T02:30:26.094Z,6.39
2023-02-13T02:31:26.093Z,6.39
2023-02-13T02:32:26.118Z,6.41
2023-02-13T02:33:26.146Z,6.41
2023-02-13T02:34:26.183Z,6.4
2023-02-13T02:35:26.226Z,6.41
2023-02-13T02:36:26.271Z,6.4
2023-02-13T02:37:26.284Z,6.41
2023-02-13T02:38:26.321Z,6.4
2023-02-13T02:39:26.365Z,6.38
2023-02-13T02:40:26.400Z,6.38
2023-02-13T02:41:26.438Z,6.38
2023-02-13T02:42:26.461Z,6.38
2023-02-13T02:43:26.496Z,6.39
2023-02-13T02:44:26.530Z,6.39
2023-02-13T02:45:26.581Z,6.4
2023-02-13T02:46:26.689Z,6.38
2023-02-13T02:47:26.626Z,6.38
2023-02-13T02:48:26.660Z,6.39
2023-02-13T02:49:26.716Z,6.39
2023-02-13T02:50:26.770Z,6.41
2023-02-13T02:51:26.778Z,6.41
2023-02-13T02:52:26.799Z,6.39
2023-02-13T02:53:26.822Z,6.41
2023-02-13T02:54:26.866Z,6.41
2023-02-13T02:55:26.896Z,6.41
2023-02-13T02:56:27.306Z,6.4
2023-02-13T02:57:26.971Z,6.4
2023-02-13T02:58:27.008Z,6.39
2023-02-13T02:59:27.040Z,6.37
2023-02-13T03:00:27.073Z,6.37
2023-02-13T03:01:27.107Z,6.37
2023-02-13T03:02:27.130Z,6.37
2023-02-13T03:03:27.173Z,6.38
2023-02-13T03:04:27.270Z,6.38
2023-02-13T03:05:27.248Z,6.32
2023-02-13T03:06:27.291Z,6.33
2023-02-13T03:07:27.328Z,6.32
2023-02-13T03:08:27.364Z,6.32
2023-02-13T03:09:27.399Z,6.32
2023-02-13T03:10:27.431Z,6.32
2023-02-13T03:11:27.466Z,6.3
2023-02-13T03:12:27.625Z,6.3
2023-02-13T03:13:27.538Z,6.31
2023-02-13T03:14:27.572Z,6.32
2023-02-13T03:15:27.603Z,6.32
2023-02-13T03:16:27.690Z,6.32
2023-02-13T03:17:27.668Z,6.32
2023-02-13T03:18:27.712Z,6.32
2023-02-13T03:19:27.749Z,6.32
2023-02-13T03:20:27.801Z,6.32
2023-02-13T03:21:27.823Z,6.32
2023-02-13T03:22:27.857Z,6.32
2023-02-13T03:23:27.904Z,6.31
2023-02-13T03:24:27.922Z,6.31
2023-02-13T03:25:27.970Z,6.31
2023-02-13T03:26:27.999Z,6.3
2023-02-13T03:27:28.040Z,6.36
2023-02-13T03:28:28.133Z,6.28
2023-02-13T03:29:28.115Z,6.29
2023-02-13T03:30:28.201Z,6.29
2023-02-13T03:31:28.201Z,6.29
2023-02-13T03:32:28.236Z,6.29
2023-02-13T03:33:28.270Z,6.3
2023-02-13T03:34:28.304Z,6.3
2023-02-13T03:35:28.330Z,6.28
2023-02-13T03:36:28.373Z,6.28
2023-02-13T03:37:28.402Z,6.28
2023-02-13T03:38:28.444Z,6.27
2023-02-13T03:39:28.488Z,6.27
2023-02-13T03:40:28.527Z,6.27
2023-02-13T03:41:28.553Z,6.26
2023-02-13T03:42:29.166Z,6.26
2023-02-13T03:43:28.626Z,6.26
2023-02-13T03:44:28.664Z,6.26
2023-02-13T03:45:28.713Z,6.26
2023-02-13T03:46:28.728Z,6.24
2023-02-13T03:47:28.765Z,6.27
2023-02-13T03:48:28.795Z,6.25
2023-02-13T03:49:28.829Z,6.25
2023-02-13T03:50:28.877Z,6.24
2023-02-13T03:51:28.912Z,6.24
2023-02-13T03:52:28.947Z,6.24
2023-02-13T03:53:28.984Z,6.23
2023-02-13T03:54:29.016Z,6.22
2023-02-13T03:55:29.054Z,6.23
2023-02-13T03:56:29.092Z,6.24
2023-02-13T03:57:29.119Z,6.25
2023-02-13T03:58:29.163Z,6.26
2023-02-13T03:59:29.198Z,6.26
2023-02-13T04:00:29.235Z,6.26
2023-02-13T04:01:29.350Z,6.29
2023-02-13T04:02:29.343Z,6.29
2023-02-13T04:03:29.333Z,6.23
2023-02-13T04:04:29.388Z,6.23
2023-02-13T04:05:29.404Z,6.23
2023-02-13T04:06:29.440Z,6.24
2023-02-13T04:07:29.780Z,6.24
2023-02-13T04:08:29.515Z,6.22
2023-02-13T04:09:29.542Z,6.22
2023-02-13T04:10:29.577Z,6.22
2023-02-13T04:11:29.607Z,6.22
2023-02-13T04:12:29.646Z,6.22
2023-02-13T04:13:29.679Z,6.22
2023-02-13T04:14:29.705Z,6.22
2023-02-13T04:15:29.746Z,6.22
2023-02-13T04:16:29.828Z,6.21
2023-02-13T04:17:29.816Z,6.21
2023-02-13T04:18:29.849Z,6.2
2023-02-13T04:19:29.883Z,6.2
2023-02-13T04:20:29.918Z,6.19
2023-02-13T04:21:29.994Z,6.19
2023-02-13T04:22:29.993Z,6.17
2023-02-13T04:23:30.054Z,6.18
2023-02-13T04:24:30.062Z,6.16
2023-02-13T04:25:30.107Z,6.16
2023-02-13T04:26:30.174Z,6.16
2023-02-13T04:27:30.175Z,6.15
2023-02-13T04:28:30.292Z,6.15
2023-02-13T04:29:30.263Z,6.15
2023-02-13T04:30:30.348Z,6.14
2023-02-13T04:31:30.389Z,6.14
2023-02-13T04:32:30.349Z,6.15
2023-02-13T04:33:30.378Z,6.16
2023-02-13T04:34:30.423Z,6.13
2023-02-13T04:35:30.464Z,6.13
2023-02-13T04:36:30.548Z,6.13
2023-02-13T04:37:30.532Z,6.13
2023-02-13T04:38:30.607Z,6.13
2023-02-13T04:39:30.618Z,6.14
2023-02-13T04:40:30.655Z,6.14
2023-02-13T04:41:30.670Z,6.14
2023-02-13T04:42:30.708Z,6.13
2023-02-13T04:43:30.734Z,6.13
2023-02-13T04:44:30.777Z,6.12
2023-02-13T04:45:30.824Z,6.12
2023-02-13T04:46:30.855Z,6.12
2023-02-13T04:47:30.887Z,6.12
2023-02-13T04:48:30.914Z,6.13
2023-02-13T04:49:30.947Z,6.13
2023-02-13T04:50:30.999Z,6.12
2023-02-13T04:51:31.029Z,6.12
2023-02-13T04:52:31.053Z,6.12
2023-02-13T04:53:31.092Z,6.11
2023-02-13T04:54:31.131Z,6.11
2023-02-13T04:55:31.165Z,6.11
2023-02-13T04:56:31.213Z,6.11
2023-02-13T04:57:31.251Z,6.1
2023-02-13T04:58:31.296Z,6.1
2023-02-13T04:59:31.329Z,6.1
2023-02-13T05:00:31.371Z,6.09
2023-02-13T05:01:31.482Z,6.07
2023-02-13T05:02:31.440Z,6.05
2023-02-13T05:03:31.467Z,6.04
2023-02-13T05:04:31.560Z,6.03
2023-02-13T05:05:31.537Z,6.02
2023-02-13T05:06:31.595Z,6.02
2023-02-13T05:07:31.608Z,6.01
2023-02-13T05:08:31.656Z,6.03
2023-02-13T05:09:31.669Z,6.01
2023-02-13T05:10:31.725Z,6
2023-02-13T05:11:31.766Z,5.98
2023-02-13T05:12:31.773Z,5.96
2023-02-13T05:13:31.806Z,5.97
2023-02-13T05:14:31.839Z,5.97
2023-02-13T05:15:31.962Z,5.97
2023-02-13T05:16:31.920Z,5.96
2023-02-13T05:17:31.938Z,5.96
2023-02-13T05:18:31.982Z,5.96
2023-02-13T05:19:32.016Z,5.96
2023-02-13T05:20:32.045Z,5.97
2023-02-13T05:21:32.074Z,5.92
2023-02-13T05:22:32.118Z,5.92
2023-02-13T05:23:32.163Z,5.92
2023-02-13T05:24:32.196Z,5.92
2023-02-13T05:25:32.233Z,5.92
2023-02-13T05:26:32.278Z,5.93
2023-02-13T05:27:32.298Z,5.92
2023-02-13T05:28:32.410Z,5.89
2023-02-13T05:29:32.361Z,5.89
2023-02-13T05:30:32.396Z,5.89
2023-02-13T05:31:32.580Z,5.89
2023-02-13T05:32:32.473Z,5.89
2023-02-13T05:33:32.514Z,5.89
2023-02-13T05:34:32.539Z,5.9
2023-02-13T05:35:32.573Z,5.9
2023-02-13T05:36:32.614Z,5.91
2023-02-13T05:37:32.642Z,5.92
2023-02-13T05:38:32.685Z,5.92
2023-02-13T05:39:32.714Z,5.94
2023-02-13T05:40:32.761Z,5.95
2023-02-13T05:41:32.786Z,5.95
2023-02-13T05:42:32.821Z,5.95
2023-02-13T05:43:32.869Z,5.95
2023-02-13T05:44:32.901Z,5.95
2023-02-13T05:45:32.950Z,5.95
2023-02-13T05:46:33.020Z,5.96
2023-02-13T05:47:33.008Z,5.96
2023-02-13T05:48:33.054Z,5.96
2023-02-13T05:49:33.083Z,5.96
2023-02-13T05:50:33.121Z,5.96
2023-02-13T05:51:33.147Z,5.96
2023-02-13T05:52:33.183Z,5.96
2023-02-13T05:53:33.219Z,5.98
2023-02-13T05:54:33.266Z,6
2023-02-13T05:55:33.293Z,6
2023-02-13T05:56:33.340Z,6
2023-02-13T05:57:34.771Z,6
2023-02-13T05:58:33.405Z,6
2023-02-13T05:59:33.437Z,6
2023-02-13T06:00:33.480Z,6.01
2023-02-13T06:01:33.514Z,6.01
2023-02-13T06:02:33.601Z,6.01
2023-02-13T06:03:33.611Z,6.02
2023-02-13T06:04:33.614Z,6.01
2023-02-13T06:05:33.645Z,6.02
2023-02-13T06:06:33.678Z,6.02
2023-02-13T06:07:33.722Z,5.97
2023-02-13T06:08:33.749Z,5.97
2023-02-13T06:09:33.825Z,5.97
2023-02-13T06:10:33.813Z,5.97
2023-02-13T06:11:33.845Z,5.98
2023-02-13T06:12:33.882Z,5.98
2023-02-13T06:13:33.927Z,5.98
2023-02-13T06:14:33.957Z,5.98
2023-02-13T06:15:34.025Z,5.98
2023-02-13T06:16:34.013Z,5.98
2023-02-13T06:17:34.048Z,5.98
2023-02-13T06:18:34.081Z,5.99
2023-02-13T06:19:34.118Z,5.98
2023-02-13T06:20:34.155Z,5.98
2023-02-13T06:21:34.193Z,5.98
2023-02-13T06:22:34.221Z,5.98
2023-02-13T06:23:34.258Z,5.98
2023-02-13T06:24:34.304Z,5.99
2023-02-13T06:25:34.334Z,6
2023-02-13T06:26:34.361Z,5.99
2023-02-13T06:27:34.395Z,6
2023-02-13T06:28:34.488Z,6
2023-02-13T06:29:34.460Z,6
2023-02-13T06:30:34.516Z,6
2023-02-13T06:31:34.597Z,6.01
2023-02-13T06:32:34.587Z,6.01
2023-02-13T06:33:34.607Z,6.03
2023-02-13T06:34:34.645Z,6.01
2023-02-13T06:35:34.669Z,6.04
2023-02-13T06:36:34.707Z,6.03
2023-02-13T06:37:34.746Z,6.03
2023-02-13T06:38:34.782Z,6.03
2023-02-13T06:39:34.820Z,6.04
2023-02-13T06:40:34.847Z,6.03
2023-02-13T06:41:34.922Z,6.03
2023-02-13T06:42:34.920Z,6.01
2023-02-13T06:43:34.951Z,6.01
2023-02-13T06:44:34.998Z,6.01
2023-02-13T06:45:38.413Z,6.01
2023-02-13T06:46:37.300Z,6.01
2023-02-13T06:47:37.283Z,6.01
2023-02-13T06:48:37.319Z,6.01
2023-02-13T06:49:37.343Z,6
2023-02-13T06:50:37.373Z,6
2023-02-13T06:51:37.408Z,6
2023-02-13T06:52:37.452Z,6.01
2023-02-13T06:53:37.463Z,6.01
2023-02-13T06:54:47.387Z,6.01
2023-02-13T06:55:37.524Z,6.01
2023-02-13T06:56:37.560Z,6.02
2023-02-13T06:57:37.594Z,6.02
2023-02-13T06:58:37.629Z,6.02
2023-02-13T06:59:37.666Z,6.02
2023-02-13T07:00:37.738Z,6.02
2023-02-13T07:01:37.723Z,6.02
2023-02-13T07:02:37.814Z,6.02
2023-02-13T07:03:37.796Z,6.02
2023-02-13T07:04:37.860Z,6.02
2023-02-13T07:05:37.874Z,6.02
2023-02-13T07:06:37.904Z,6.03
2023-02-13T07:07:37.963Z,6.02
2023-02-13T07:08:37.988Z,6.02
2023-02-13T07:09:38.022Z,6.02
2023-02-13T07:10:38.047Z,6.04
2023-02-13T07:11:38.083Z,6.02
2023-02-13T07:12:38.125Z,6.02
2023-02-13T07:13:38.156Z,6.04
2023-02-13T07:14:38.192Z,6.04
2023-02-13T07:15:38.293Z,6.02
2023-02-13T07:16:38.254Z,6.05
2023-02-13T07:17:38.298Z,6.02
2023-02-13T07:18:38.690Z,6.05
2023-02-13T07:19:38.360Z,6.1
2023-02-13T07:20:38.410Z,6.09
2023-02-13T07:21:38.426Z,6.09
2023-02-13T07:22:38.466Z,6.09
2023-02-13T07:23:38.483Z,6.11
2023-02-13T07:24:38.546Z,6.1
2023-02-13T07:25:38.565Z,6.11
2023-02-13T07:26:38.606Z,6.1
2023-02-13T07:27:38.632Z,6.1
2023-02-13T07:28:38.770Z,6.09
2023-02-13T07:29:38.714Z,6.09
2023-02-13T07:30:38.802Z,6.09
2023-02-13T07:31:38.812Z,6.08
2023-02-13T07:32:38.820Z,6.08
2023-02-13T07:33:38.858Z,6.08
2023-02-13T07:34:44.485Z,6.08
2023-02-13T07:35:38.928Z,6.1
2023-02-13T07:36:38.978Z,6.14
2023-02-13T07:37:39.002Z,6.16
2023-02-13T07:38:39.034Z,6.16
2023-02-13T07:39:39.073Z,6.14
2023-02-13T07:40:39.102Z,6.14
2023-02-13T07:41:39.149Z,6.15
2023-02-13T07:42:39.185Z,6.15
2023-02-13T07:43:39.203Z,6.15
2023-02-13T07:44:39.245Z,6.15
2023-02-13T07:45:39.283Z,6.15
2023-02-13T07:46:39.361Z,6.15
2023-02-13T07:47:39.354Z,6.15
2023-02-13T07:48:39.393Z,6.15
2023-02-13T07:49:39.431Z,6.14
2023-02-13T07:50:39.465Z,6.14
2023-02-13T07:51:39.502Z,6.14
2023-02-13T07:52:39.547Z,6.14
2023-02-13T07:53:39.574Z,6.16
2023-02-13T07:54:39.604Z,6.16
2023-02-13T07:55:39.646Z,6.15
2023-02-13T07:56:39.679Z,6.15
2023-02-13T07:57:39.710Z,6.15
2023-02-13T07:58:39.736Z,6.15
2023-02-13T07:59:39.782Z,6.16
2023-02-13T08:00:39.805Z,6.2
2023-02-13T08:01:39.872Z,6.21
2023-02-13T08:02:39.878Z,6.2
2023-02-13T08:03:39.948Z,6.21
2023-02-13T08:04:39.956Z,6.21
2023-02-13T08:05:39.986Z,6.22
2023-02-13T08:06:40.041Z,6.22
2023-02-13T08:07:40.067Z,6.23
2023-02-13T08:08:40.083Z,6.23
2023-02-13T08:09:40.981Z,6.23
2023-02-13T08:10:40.160Z,6.23
2023-02-13T08:11:40.180Z,6.23
2023-02-13T08:12:40.205Z,6.23
2023-02-13T08:13:40.269Z,6.23
2023-02-13T08:14:40.282Z,6.23
2023-02-13T08:15:40.322Z,6.24
2023-02-13T08:16:40.404Z,6.23
2023-02-13T08:17:40.383Z,6.22
2023-02-13T08:18:40.407Z,6.22
2023-02-13T08:19:40.454Z,6.21
2023-02-13T08:20:40.473Z,6.21
2023-02-13T08:21:40.508Z,6.22
2023-02-13T08:22:40.547Z,6.21
2023-02-13T08:23:40.621Z,6.21
2023-02-13T08:24:40.613Z,6.2
2023-02-13T08:25:40.668Z,6.23
2023-02-13T08:26:40.673Z,6.22
2023-02-13T08:27:40.708Z,6.2
2023-02-13T08:28:40.915Z,6.22
2023-02-13T08:29:40.794Z,6.2
2023-02-13T08:30:40.872Z,6.2
2023-02-13T08:31:40.873Z,6.21
2023-02-13T08:32:53.576Z,6.21
2023-02-13T08:33:40.928Z,6.21
2023-02-13T08:34:40.968Z,6.21
2023-02-13T08:35:41.006Z,6.2
2023-02-13T08:36:41.032Z,6.23
2023-02-13T08:37:41.065Z,6.24
2023-02-13T08:39:41.141Z,6.23
2023-02-13T08:40:41.178Z,6.23
2023-02-13T08:41:41.210Z,6.24
2023-02-13T08:42:41.256Z,6.23
2023-02-13T08:43:41.291Z,6.23
2023-02-13T08:44:41.326Z,6.24
2023-02-13T08:45:41.452Z,6.24
2023-02-13T08:46:41.391Z,6.25
2023-02-13T08:47:41.431Z,6.25
2023-02-13T08:48:41.464Z,6.25
2023-02-13T08:49:41.497Z,6.25
2023-02-13T08:50:41.533Z,6.25
2023-02-13T08:51:41.555Z,6.24
2023-02-13T08:52:41.592Z,6.25
2023-02-13T08:53:41.633Z,6.28
2023-02-13T08:54:41.662Z,6.27
2023-02-13T08:55:41.706Z,6.27
2023-02-13T08:56:41.766Z,6.31
2023-02-13T08:57:41.780Z,6.34
2023-02-13T08:58:41.816Z,6.33
2023-02-13T08:59:41.841Z,6.33
2023-02-13T09:00:41.880Z,6.33
2023-02-13T09:01:41.952Z,6.32
2023-02-13T09:02:41.974Z,6.32
2023-02-13T09:03:41.975Z,6.32
2023-02-13T09:04:42.005Z,6.32
2023-02-13T09:05:42.039Z,6.34
2023-02-13T09:06:42.073Z,6.34
2023-02-13T09:07:42.115Z,6.34
2023-02-13T09:08:42.154Z,6.35
2023-02-13T09:09:42.186Z,6.42
2023-02-13T09:10:42.225Z,6.42
2023-02-13T09:11:42.254Z,6.41
2023-02-13T09:12:42.299Z,6.41
2023-02-13T09:13:42.339Z,6.43
2023-02-13T09:14:42.370Z,6.44
2023-02-13T09:15:42.413Z,6.43
2023-02-13T09:16:42.542Z,6.42
2023-02-13T09:17:42.465Z,6.45
2023-02-13T09:18:42.492Z,6.45
2023-02-13T09:19:42.523Z,6.44
2023-02-13T09:20:42.562Z,6.45
2023-02-13T09:21:42.612Z,6.47
2023-02-13T09:22:42.645Z,6.47
2023-02-13T09:23:42.675Z,6.47
2023-02-13T09:24:42.707Z,6.47
2023-02-13T09:25:42.734Z,6.49
2023-02-13T09:26:42.765Z,6.49
2023-02-13T09:27:42.820Z,6.49
2023-02-13T09:28:42.990Z,6.49
2023-02-13T09:29:42.871Z,6.51
2023-02-13T09:30:42.935Z,6.54
2023-02-13T09:31:43.095Z,6.54
2023-02-13T09:32:42.973Z,6.54
2023-02-13T09:33:43.008Z,6.57
2023-02-13T09:34:43.042Z,6.58
2023-02-13T09:35:43.070Z,6.58
2023-02-13T09:36:43.114Z,6.58
2023-02-13T09:37:43.133Z,6.59
2023-02-13T09:38:43.168Z,6.6
2023-02-13T09:39:43.199Z,6.61
2023-02-13T09:40:43.240Z,6.61
2023-02-13T09:41:43.305Z,6.63
2023-02-13T09:42:43.298Z,6.63
2023-02-13T09:43:43.340Z,6.63
2023-02-13T09:44:43.523Z,6.66
2023-02-13T09:45:43.413Z,6.68
2023-02-13T09:46:43.574Z,6.68
2023-02-13T09:47:43.470Z,6.68
2023-02-13T09:48:43.506Z,6.68
2023-02-13T09:49:43.547Z,6.66
2023-02-13T09:50:43.575Z,6.66
2023-02-13T09:51:43.620Z,6.66
2023-02-13T09:52:43.648Z,6.69
2023-02-13T09:53:43.736Z,6.69
2023-02-13T09:54:43.710Z,6.69
2023-02-13T09:55:43.739Z,6.73
2023-02-13T09:56:43.777Z,6.73
2023-02-13T09:57:43.815Z,6.74
2023-02-13T09:58:43.841Z,6.77
2023-02-13T09:59:43.889Z,6.77
2023-02-13T10:00:43.928Z,6.76
2023-02-13T10:01:44.023Z,6.77
2023-02-13T10:02:43.973Z,6.79
2023-02-13T10:03:44.010Z,6.83
2023-02-13T10:04:44.160Z,6.84
2023-02-13T10:05:44.081Z,6.84
2023-02-13T10:06:44.122Z,6.84
2023-02-13T10:07:44.150Z,6.86
2023-02-13T10:08:44.185Z,6.85
2023-02-13T10:09:44.216Z,6.89
2023-02-13T10:10:44.251Z,6.88
2023-02-13T10:11:44.277Z,6.85
2023-02-13T10:12:44.312Z,6.84
2023-02-13T10:13:44.355Z,6.84
2023-02-13T10:14:44.391Z,6.84
2023-02-13T10:15:44.514Z,6.84
2023-02-13T10:16:44.471Z,6.82
2023-02-13T10:17:44.510Z,6.82
2023-02-13T10:18:44.540Z,6.81
2023-02-13T10:19:44.581Z,6.81
2023-02-13T10:20:44.607Z,6.81
2023-02-13T10:21:44.636Z,6.8
2023-02-13T10:22:44.672Z,6.81
2023-02-13T10:23:44.704Z,6.81
2023-02-13T10:24:44.745Z,6.8
2023-02-13T10:25:44.768Z,6.78
2023-02-13T10:26:44.801Z,6.77
2023-02-13T10:27:44.839Z,6.75
2023-02-13T10:28:44.946Z,6.74
2023-02-13T10:29:44.896Z,6.76
2023-02-13T10:30:45.089Z,6.76
2023-02-13T10:31:45.059Z,6.79
2023-02-13T10:32:45.009Z,6.75
2023-02-13T10:33:45.054Z,6.76
2023-02-13T10:34:45.097Z,6.77
2023-02-13T10:35:45.119Z,6.78
2023-02-13T10:36:45.158Z,6.79
2023-02-13T10:37:45.177Z,6.8
2023-02-13T10:38:45.210Z,6.8
2023-02-13T10:39:45.244Z,6.81
2023-02-13T10:40:45.280Z,6.81
2023-02-13T10:41:45.319Z,6.83
2023-02-13T10:42:45.381Z,6.84
2023-02-13T10:43:45.386Z,6.83
2023-02-13T10:44:45.421Z,6.87
2023-02-13T10:45:45.456Z,6.88
2023-02-13T10:46:45.557Z,6.88
2023-02-13T10:47:45.527Z,6.89
2023-02-13T10:48:45.553Z,6.89
2023-02-13T10:49:45.584Z,6.96
2023-02-13T10:50:45.623Z,6.95
2023-02-13T10:51:45.656Z,6.93
2023-02-13T10:52:45.688Z,6.93
2023-02-13T10:53:45.706Z,6.92
2023-02-13T10:54:45.740Z,6.92
2023-02-13T10:55:45.784Z,6.91
2023-02-13T10:56:45.814Z,6.89
2023-02-13T10:57:45.841Z,6.89
2023-02-13T10:58:45.877Z,6.89
2023-02-13T10:59:45.921Z,6.89
2023-02-13T11:00:45.956Z,6.87
2023-02-13T11:01:46.005Z,6.86
2023-02-13T11:02:46.013Z,6.84
2023-02-13T11:03:46.052Z,6.85
2023-02-13T11:04:46.204Z,6.83
2023-02-13T11:05:46.123Z,6.84
2023-02-13T11:06:46.151Z,6.83
2023-02-13T11:07:46.182Z,6.81
2023-02-13T11:08:46.227Z,6.81
2023-02-13T11:09:46.259Z,6.81
2023-02-13T11:10:46.283Z,6.81
2023-02-13T11:11:46.316Z,6.79
2023-02-13T11:12:46.357Z,6.76
2023-02-13T11:13:46.393Z,6.76
2023-02-13T11:14:46.430Z,6.75
2023-02-13T11:15:46.479Z,6.74
2023-02-13T11:16:46.498Z,6.73
2023-02-13T11:17:46.530Z,6.74
2023-02-13T11:18:46.575Z,6.74
2023-02-13T11:19:46.612Z,6.74
2023-02-13T11:20:46.639Z,6.75
2023-02-13T11:21:46.675Z,6.72
2023-02-13T11:22:46.715Z,6.73
2023-02-13T11:23:46.744Z,6.76
2023-02-13T11:24:46.769Z,6.75
2023-02-13T11:25:46.808Z,6.73
2023-02-13T11:26:46.831Z,6.7
2023-02-13T11:27:46.860Z,6.67
2023-02-13T11:28:46.986Z,6.69
2023-02-13T11:29:46.928Z,6.68
2023-02-13T11:30:46.993Z,6.69
2023-02-13T11:31:47.083Z,6.69
2023-02-13T11:32:47.037Z,6.7
2023-02-13T11:33:47.077Z,6.72
2023-02-13T11:34:47.113Z,6.74
2023-02-13T11:35:47.144Z,6.75
2023-02-13T11:36:47.180Z,6.77
2023-02-13T11:37:47.219Z,6.77
2023-02-13T11:38:47.255Z,6.75
2023-02-13T11:39:47.971Z,6.75
2023-02-13T11:40:47.326Z,6.73
2023-02-13T11:41:47.359Z,6.73
2023-02-13T11:42:47.391Z,6.71
2023-02-13T11:43:47.434Z,6.71
2023-02-13T11:44:47.468Z,6.71
2023-02-13T11:45:47.495Z,6.71
2023-02-13T11:46:47.584Z,6.7
2023-02-13T11:47:47.571Z,6.72
2023-02-13T11:48:47.606Z,6.77
2023-02-13T11:49:47.637Z,6.77
2023-02-13T11:50:47.685Z,6.8
2023-02-13T11:51:47.704Z,6.8
2023-02-13T11:52:47.736Z,6.79
2023-02-13T11:53:47.780Z,6.78
2023-02-13T11:54:47.809Z,6.82
2023-02-13T11:55:47.847Z,6.82
2023-02-13T11:57:03.082Z,6.81
2023-02-13T11:57:47.909Z,6.8
2023-02-13T11:58:47.977Z,6.8
2023-02-13T11:59:47.992Z,6.79
2023-02-13T12:00:48.023Z,6.77
2023-02-13T12:01:48.056Z,6.76
2023-02-13T12:02:48.287Z,6.76
2023-02-13T12:03:48.165Z,6.76
2023-02-13T12:04:48.167Z,6.77
2023-02-13T12:05:48.188Z,6.79
2023-02-13T12:06:48.226Z,6.78
2023-02-13T12:07:48.261Z,6.79
2023-02-13T12:08:48.286Z,6.79
2023-02-13T12:09:48.359Z,6.77
2023-02-13T12:10:48.354Z,6.77
2023-02-13T12:11:48.406Z,6.79
2023-02-13T12:12:49.452Z,6.78
2023-02-13T12:13:48.469Z,6.76
2023-02-13T12:14:48.494Z,6.75
2023-02-13T12:15:48.534Z,6.75
2023-02-13T12:16:48.616Z,6.74
2023-02-13T12:17:48.626Z,6.73
2023-02-13T12:18:48.648Z,6.73
2023-02-13T12:19:48.684Z,6.72
2023-02-13T12:20:48.740Z,6.72
2023-02-13T12:21:48.759Z,6.73
2023-02-13T12:22:48.794Z,6.77
2023-02-13T12:23:48.839Z,6.8
2023-02-13T12:24:48.867Z,6.75
2023-02-13T12:25:48.906Z,6.75
2023-02-13T12:26:48.940Z,6.78
2023-02-13T12:27:48.967Z,6.74
2023-02-13T12:28:49.001Z,6.72
2023-02-13T12:29:49.041Z,6.73
2023-02-13T12:30:49.098Z,6.7
2023-02-13T12:31:49.151Z,6.69
2023-02-13T12:32:49.143Z,6.67
2023-02-13T12:33:49.165Z,6.68
2023-02-13T12:34:49.192Z,6.68
2023-02-13T12:35:49.226Z,6.69
2023-02-13T12:36:49.268Z,6.69
2023-02-13T12:37:49.332Z,6.66
2023-02-13T12:38:49.341Z,6.66
2023-02-13T12:39:49.369Z,6.63
2023-02-13T12:40:49.402Z,6.67
2023-02-13T12:41:49.449Z,6.68
2023-02-13T12:42:49.468Z,6.66
2023-02-13T12:43:49.508Z,6.66
2023-02-13T12:44:49.533Z,6.66
2023-02-13T12:45:49.606Z,6.68
2023-02-13T12:46:49.603Z,6.69
2023-02-13T12:47:49.641Z,6.65
2023-02-13T12:48:49.675Z,6.63
2023-02-13T12:49:49.711Z,6.61
2023-02-13T12:50:49.745Z,6.53
2023-02-13T12:51:49.777Z,6.51
2023-02-13T12:52:49.809Z,6.55
2023-02-13T12:53:49.845Z,6.53
2023-02-13T12:54:49.892Z,6.52
2023-02-13T12:55:49.926Z,6.54
2023-02-13T12:56:49.928Z,6.53
2023-02-13T12:57:49.971Z,6.51
2023-02-13T12:58:50.009Z,6.52
2023-02-13T12:59:50.036Z,6.53
2023-02-13T13:00:50.163Z,6.52
2023-02-13T13:01:50.114Z,6.52
2023-02-13T13:02:50.146Z,6.52
2023-02-13T13:03:50.181Z,6.55
2023-02-13T13:04:50.218Z,6.56
2023-02-13T13:05:58.738Z,6.57
2023-02-13T13:06:50.296Z,6.58
2023-02-13T13:07:50.315Z,6.59
2023-02-13T13:08:50.347Z,6.6
2023-02-13T13:09:50.393Z,6.6
2023-02-13T13:10:51.474Z,6.61
2023-02-13T13:11:50.462Z,6.61
2023-02-13T13:12:50.502Z,6.62
2023-02-13T13:13:50.535Z,6.62
2023-02-13T13:14:50.576Z,6.62
2023-02-13T13:15:51.614Z,6.61
2023-02-13T13:16:50.678Z,6.63
2023-02-13T13:17:50.902Z,6.61
2023-02-13T13:18:50.688Z,6.59
2023-02-13T13:19:50.724Z,6.57
2023-02-13T13:20:50.746Z,6.6
2023-02-13T13:21:50.786Z,6.59
2023-02-13T13:22:50.835Z,6.56
2023-02-13T13:23:50.861Z,6.54